sensor_id;sensor_type;location;lat;lon;timestamp;P1;durP1;ratioP1;P2;durP2;ratioP2
18076;SDS011;9165;45.714;11.362;2024-03-23T00:54:37;10.13;;;6.37;;
18076;SDS011;9165;45.714;11.362;2024-03-23T00:57:04;11.10;;;6.80;;
18076;SDS011;9165;45.714;11.362;2024-03-23T00:59:30;11.67;;;6.73;;
18076;SDS011;9165;45.714;11.362;2024-03-23T01:01:56;12.77;;;6.47;;
18076;SDS011;9165;45.714;11.362;2024-03-23T01:04:22;11.60;;;6.47;;
18076;SDS011;9165;45.714;11.362;2024-03-23T01:06:48;9.73;;;5.83;;
18076;SDS011;9165;45.714;11.362;2024-03-23T01:09:14;8.87;;;6.07;;
18076;SDS011;9165;45.714;11.362;2024-03-23T01:11:42;10.53;;;7.03;;
18076;SDS011;9165;45.714;11.362;2024-03-23T01:14:07;11.90;;;6.83;;
18076;SDS011;9165;45.714;11.362;2024-03-23T01:16:34;10.53;;;6.30;;
18076;SDS011;9165;45.714;11.362;2024-03-23T01:18:59;11.77;;;6.40;;
18076;SDS011;9165;45.714;11.362;2024-03-23T01:21:26;9.63;;;6.10;;
18076;SDS011;9165;45.714;11.362;2024-03-23T01:23:52;10.90;;;6.70;;
18076;SDS011;9165;45.714;11.362;2024-03-23T01:26:18;8.17;;;5.37;;
18076;SDS011;9165;45.714;11.362;2024-03-23T01:28:45;10.37;;;6.60;;
18076;SDS011;9165;45.714;11.362;2024-03-23T01:31:11;10.37;;;6.23;;
18076;SDS011;9165;45.714;11.362;2024-03-23T01:33:37;11.07;;;5.93;;
18076;SDS011;9165;45.714;11.362;2024-03-23T01:36:03;10.53;;;6.40;;
18076;SDS011;9165;45.714;11.362;2024-03-23T01:38:29;7.33;;;5.70;;
18076;SDS011;9165;45.714;11.362;2024-03-23T01:40:59;11.47;;;6.20;;
18076;SDS011;9165;45.714;11.362;2024-03-23T01:43:24;12.97;;;6.97;;
18076;SDS011;9165;45.714;11.362;2024-03-23T01:45:52;12.80;;;6.67;;
18076;SDS011;9165;45.714;11.362;2024-03-23T01:48:19;11.67;;;6.43;;
18076;SDS011;9165;45.714;11.362;2024-03-23T01:50:45;11.63;;;6.57;;
18076;SDS011;9165;45.714;11.362;2024-03-23T01:53:11;10.23;;;6.43;;
18076;SDS011;9165;45.714;11.362;2024-03-23T01:55:37;11.37;;;6.53;;
18076;SDS011;9165;45.714;11.362;2024-03-23T01:58:04;9.87;;;6.50;;
18076;SDS011;9165;45.714;11.362;2024-03-23T02:00:30;10.30;;;6.10;;
18076;SDS011;9165;45.714;11.362;2024-03-23T02:02:57;11.43;;;6.40;;
18076;SDS011;9165;45.714;11.362;2024-03-23T02:05:24;12.20;;;6.97;;
18076;SDS011;9165;45.714;11.362;2024-03-23T02:07:49;8.90;;;6.33;;
18076;SDS011;9165;45.714;11.362;2024-03-23T02:10:17;12.33;;;6.50;;
18076;SDS011;9165;45.714;11.362;2024-03-23T02:12:42;9.57;;;6.60;;
18076;SDS011;9165;45.714;11.362;2024-03-23T02:15:09;10.00;;;6.37;;
18076;SDS011;9165;45.714;11.362;2024-03-23T02:17:35;10.57;;;6.00;;
18076;SDS011;9165;45.714;11.362;2024-03-23T02:20:03;11.23;;;5.77;;
18076;SDS011;9165;45.714;11.362;2024-03-23T02:22:35;12.53;;;6.43;;
18076;SDS011;9165;45.714;11.362;2024-03-23T02:25:03;10.80;;;6.33;;
18076;SDS011;9165;45.714;11.362;2024-03-23T02:27:29;15.07;;;6.93;;
18076;SDS011;9165;45.714;11.362;2024-03-23T02:29:56;11.23;;;5.93;;
18076;SDS011;9165;45.714;11.362;2024-03-23T02:32:21;11.60;;;6.60;;
18076;SDS011;9165;45.714;11.362;2024-03-23T02:34:48;10.13;;;6.30;;
18076;SDS011;9165;45.714;11.362;2024-03-23T02:37:14;9.40;;;6.30;;
18076;SDS011;9165;45.714;11.362;2024-03-23T02:39:40;9.87;;;6.43;;
18076;SDS011;9165;45.714;11.362;2024-03-23T02:42:08;8.20;;;5.57;;
18076;SDS011;9165;45.714;11.362;2024-03-23T02:44:35;10.53;;;6.47;;
18076;SDS011;9165;45.714;11.362;2024-03-23T02:47:00;10.40;;;6.40;;
18076;SDS011;9165;45.714;11.362;2024-03-23T02:49:27;12.63;;;6.60;;
18076;SDS011;9165;45.714;11.362;2024-03-23T02:51:57;10.83;;;6.63;;
18076;SDS011;9165;45.714;11.362;2024-03-23T02:54:26;11.70;;;6.80;;
18076;SDS011;9165;45.714;11.362;2024-03-23T02:56:52;11.90;;;6.90;;
18076;SDS011;9165;45.714;11.362;2024-03-23T02:59:22;13.17;;;6.97;;
18076;SDS011;9165;45.714;11.362;2024-03-23T03:01:54;10.53;;;7.17;;
18076;SDS011;9165;45.714;11.362;2024-03-23T03:04:37;14.13;;;7.67;;
18076;SDS011;9165;45.714;11.362;2024-03-23T03:07:10;10.43;;;6.67;;
18076;SDS011;9165;45.714;11.362;2024-03-23T03:09:54;10.67;;;6.57;;
18076;SDS011;9165;45.714;11.362;2024-03-23T03:12:25;9.83;;;5.87;;
18076;SDS011;9165;45.714;11.362;2024-03-23T03:14:53;12.27;;;6.73;;
18076;SDS011;9165;45.714;11.362;2024-03-23T03:17:20;10.97;;;6.97;;
18076;SDS011;9165;45.714;11.362;2024-03-23T03:19:45;11.37;;;7.03;;
18076;SDS011;9165;45.714;11.362;2024-03-23T03:22:12;10.93;;;6.80;;
18076;SDS011;9165;45.714;11.362;2024-03-23T03:24:37;10.90;;;6.93;;
18076;SDS011;9165;45.714;11.362;2024-03-23T03:27:07;10.60;;;7.30;;
18076;SDS011;9165;45.714;11.362;2024-03-23T03:29:36;11.50;;;7.30;;
18076;SDS011;9165;45.714;11.362;2024-03-23T03:32:04;12.70;;;8.10;;
18076;SDS011;9165;45.714;11.362;2024-03-23T03:34:32;12.40;;;7.07;;
18076;SDS011;9165;45.714;11.362;2024-03-23T03:37:30;13.13;;;7.27;;
18076;SDS011;9165;45.714;11.362;2024-03-23T03:39:57;12.97;;;7.80;;
18076;SDS011;9165;45.714;11.362;2024-03-23T03:42:23;11.80;;;8.10;;
18076;SDS011;9165;45.714;11.362;2024-03-23T03:44:49;11.10;;;7.30;;
18076;SDS011;9165;45.714;11.362;2024-03-23T03:47:16;9.30;;;6.43;;
18076;SDS011;9165;45.714;11.362;2024-03-23T03:49:43;16.67;;;7.07;;
18076;SDS011;9165;45.714;11.362;2024-03-23T03:52:08;10.27;;;7.20;;
18076;SDS011;9165;45.714;11.362;2024-03-23T03:54:35;13.20;;;8.43;;
18076;SDS011;9165;45.714;11.362;2024-03-23T03:57:12;11.13;;;7.33;;
18076;SDS011;9165;45.714;11.362;2024-03-23T03:59:44;13.27;;;7.50;;
18076;SDS011;9165;45.714;11.362;2024-03-23T04:02:10;12.63;;;6.87;;
18076;SDS011;9165;45.714;11.362;2024-03-23T04:04:38;9.97;;;6.93;;
18076;SDS011;9165;45.714;11.362;2024-03-23T04:07:06;11.47;;;7.50;;
18076;SDS011;9165;45.714;11.362;2024-03-23T04:09:33;11.10;;;8.00;;
18076;SDS011;9165;45.714;11.362;2024-03-23T04:12:07;11.10;;;6.77;;
18076;SDS011;9165;45.714;11.362;2024-03-23T04:14:37;10.93;;;7.13;;
18076;SDS011;9165;45.714;11.362;2024-03-23T04:17:02;13.00;;;7.27;;
18076;SDS011;9165;45.714;11.362;2024-03-23T04:19:29;11.27;;;7.10;;
18076;SDS011;9165;45.714;11.362;2024-03-23T04:21:56;13.73;;;8.17;;
18076;SDS011;9165;45.714;11.362;2024-03-23T04:24:22;13.20;;;8.03;;
18076;SDS011;9165;45.714;11.362;2024-03-23T04:26:54;16.60;;;8.63;;
18076;SDS011;9165;45.714;11.362;2024-03-23T04:29:24;16.20;;;7.73;;
18076;SDS011;9165;45.714;11.362;2024-03-23T04:31:54;12.20;;;7.93;;
18076;SDS011;9165;45.714;11.362;2024-03-23T04:34:21;11.67;;;7.60;;
18076;SDS011;9165;45.714;11.362;2024-03-23T04:36:50;13.27;;;8.00;;
18076;SDS011;9165;45.714;11.362;2024-03-23T04:39:18;14.53;;;8.50;;
18076;SDS011;9165;45.714;11.362;2024-03-23T04:41:44;13.60;;;7.90;;
18076;SDS011;9165;45.714;11.362;2024-03-23T04:44:14;12.33;;;8.00;;
18076;SDS011;9165;45.714;11.362;2024-03-23T04:46:40;15.17;;;8.60;;
18076;SDS011;9165;45.714;11.362;2024-03-23T04:49:07;16.77;;;8.43;;
18076;SDS011;9165;45.714;11.362;2024-03-23T04:51:36;15.93;;;8.37;;
18076;SDS011;9165;45.714;11.362;2024-03-23T04:54:10;12.23;;;8.03;;
18076;SDS011;9165;45.714;11.362;2024-03-23T04:56:38;13.10;;;8.33;;
18076;SDS011;9165;45.714;11.362;2024-03-23T04:59:05;16.03;;;8.87;;
18076;SDS011;9165;45.714;11.362;2024-03-23T05:01:30;13.80;;;8.93;;
18076;SDS011;9165;45.714;11.362;2024-03-23T05:03:57;15.47;;;9.60;;
18076;SDS011;9165;45.714;11.362;2024-03-23T05:06:24;13.83;;;8.60;;
18076;SDS011;9165;45.714;11.362;2024-03-23T05:08:49;14.43;;;8.77;;
18076;SDS011;9165;45.714;11.362;2024-03-23T05:11:16;17.03;;;9.70;;
18076;SDS011;9165;45.714;11.362;2024-03-23T05:13:43;15.00;;;10.00;;
18076;SDS011;9165;45.714;11.362;2024-03-23T05:16:09;14.37;;;9.30;;
18076;SDS011;9165;45.714;11.362;2024-03-23T05:18:35;15.87;;;9.47;;
18076;SDS011;9165;45.714;11.362;2024-03-23T05:21:02;15.60;;;8.70;;
18076;SDS011;9165;45.714;11.362;2024-03-23T05:23:28;14.17;;;9.47;;
18076;SDS011;9165;45.714;11.362;2024-03-23T05:25:55;14.63;;;8.87;;
18076;SDS011;9165;45.714;11.362;2024-03-23T05:28:20;15.33;;;9.00;;
18076;SDS011;9165;45.714;11.362;2024-03-23T05:30:51;11.83;;;8.50;;
18076;SDS011;9165;45.714;11.362;2024-03-23T05:33:17;20.13;;;9.83;;
18076;SDS011;9165;45.714;11.362;2024-03-23T05:35:44;19.47;;;10.00;;
18076;SDS011;9165;45.714;11.362;2024-03-23T05:38:09;21.23;;;9.43;;
18076;SDS011;9165;45.714;11.362;2024-03-23T05:40:36;15.07;;;9.23;;
18076;SDS011;9165;45.714;11.362;2024-03-23T05:43:02;13.53;;;9.17;;
18076;SDS011;9165;45.714;11.362;2024-03-23T05:45:29;17.93;;;10.03;;
18076;SDS011;9165;45.714;11.362;2024-03-23T05:47:56;16.73;;;9.70;;
18076;SDS011;9165;45.714;11.362;2024-03-23T05:50:23;16.23;;;9.53;;
18076;SDS011;9165;45.714;11.362;2024-03-23T05:52:48;17.43;;;10.73;;
18076;SDS011;9165;45.714;11.362;2024-03-23T05:55:15;17.47;;;10.80;;
18076;SDS011;9165;45.714;11.362;2024-03-23T05:57:40;15.03;;;10.00;;
18076;SDS011;9165;45.714;11.362;2024-03-23T06:00:07;14.57;;;10.33;;
18076;SDS011;9165;45.714;11.362;2024-03-23T06:02:35;15.83;;;10.57;;
18076;SDS011;9165;45.714;11.362;2024-03-23T06:05:03;19.17;;;10.77;;
18076;SDS011;9165;45.714;11.362;2024-03-23T06:07:29;19.10;;;11.27;;
18076;SDS011;9165;45.714;11.362;2024-03-23T06:09:57;20.27;;;10.23;;
18076;SDS011;9165;45.714;11.362;2024-03-23T06:12:22;16.20;;;9.70;;
18076;SDS011;9165;45.714;11.362;2024-03-23T06:14:49;15.93;;;9.77;;
18076;SDS011;9165;45.714;11.362;2024-03-23T06:17:14;16.53;;;9.30;;
18076;SDS011;9165;45.714;11.362;2024-03-23T06:19:41;14.73;;;10.10;;
18076;SDS011;9165;45.714;11.362;2024-03-23T06:22:08;15.43;;;9.77;;
18076;SDS011;9165;45.714;11.362;2024-03-23T06:24:34;23.03;;;10.67;;
18076;SDS011;9165;45.714;11.362;2024-03-23T06:27:00;18.87;;;11.00;;
18076;SDS011;9165;45.714;11.362;2024-03-23T06:29:26;16.20;;;9.93;;
18076;SDS011;9165;45.714;11.362;2024-03-23T06:31:53;18.20;;;9.83;;
18076;SDS011;9165;45.714;11.362;2024-03-23T06:34:19;20.03;;;11.70;;
18076;SDS011;9165;45.714;11.362;2024-03-23T06:36:46;17.73;;;10.53;;
18076;SDS011;9165;45.714;11.362;2024-03-23T06:39:15;18.07;;;11.37;;
18076;SDS011;9165;45.714;11.362;2024-03-23T06:41:41;20.83;;;11.40;;
18076;SDS011;9165;45.714;11.362;2024-03-23T06:44:07;20.17;;;11.63;;
18076;SDS011;9165;45.714;11.362;2024-03-23T06:46:33;19.70;;;11.37;;
18076;SDS011;9165;45.714;11.362;2024-03-23T06:48:59;17.33;;;10.07;;
18076;SDS011;9165;45.714;11.362;2024-03-23T06:51:25;20.63;;;11.83;;
18076;SDS011;9165;45.714;11.362;2024-03-23T06:53:51;18.77;;;10.67;;
18076;SDS011;9165;45.714;11.362;2024-03-23T06:56:18;17.50;;;10.03;;
18076;SDS011;9165;45.714;11.362;2024-03-23T06:58:45;21.90;;;10.90;;
18076;SDS011;9165;45.714;11.362;2024-03-23T07:01:26;21.90;;;11.60;;
18076;SDS011;9165;45.714;11.362;2024-03-23T07:13:32;18.93;;;11.40;;
18076;SDS011;9165;45.714;11.362;2024-03-23T07:25:38;18.33;;;11.27;;
18076;SDS011;9165;45.714;11.362;2024-03-23T07:28:51;20.10;;;11.03;;
18076;SDS011;9165;45.714;11.362;2024-03-23T07:34:09;19.80;;;11.77;;
18076;SDS011;9165;45.714;11.362;2024-03-23T07:35:19;18.57;;;11.40;;
18076;SDS011;9165;45.714;11.362;2024-03-23T07:37:52;19.50;;;12.17;;
18076;SDS011;9165;45.714;11.362;2024-03-23T07:51:58;22.13;;;11.93;;
18076;SDS011;9165;45.714;11.362;2024-03-23T07:55:30;21.17;;;13.60;;
18076;SDS011;9165;45.714;11.362;2024-03-23T07:57:36;19.63;;;12.87;;
18076;SDS011;9165;45.714;11.362;2024-03-23T08:01:03;20.97;;;13.63;;
18076;SDS011;9165;45.714;11.362;2024-03-23T08:03:34;19.73;;;13.27;;
18076;SDS011;9165;45.714;11.362;2024-03-23T08:11:14;21.17;;;13.33;;
18076;SDS011;9165;45.714;11.362;2024-03-23T08:17:15;20.53;;;14.20;;
18076;SDS011;9165;45.714;11.362;2024-03-23T08:19:39;23.03;;;15.40;;
18076;SDS011;9165;45.714;11.362;2024-03-23T08:34:13;22.90;;;16.23;;
18076;SDS011;9165;45.714;11.362;2024-03-23T08:36:40;28.33;;;17.17;;
18076;SDS011;9165;45.714;11.362;2024-03-23T08:39:05;29.10;;;18.43;;
18076;SDS011;9165;45.714;11.362;2024-03-23T08:41:32;28.37;;;17.87;;
18076;SDS011;9165;45.714;11.362;2024-03-23T08:43:58;28.03;;;16.30;;
18076;SDS011;9165;45.714;11.362;2024-03-23T08:46:25;26.07;;;16.87;;
18076;SDS011;9165;45.714;11.362;2024-03-23T08:48:50;23.83;;;15.77;;
18076;SDS011;9165;45.714;11.362;2024-03-23T08:51:19;25.80;;;16.67;;
18076;SDS011;9165;45.714;11.362;2024-03-23T08:53:45;24.40;;;17.07;;
18076;SDS011;9165;45.714;11.362;2024-03-23T08:56:12;28.20;;;18.00;;
18076;SDS011;9165;45.714;11.362;2024-03-23T08:58:37;24.20;;;16.37;;
18076;SDS011;9165;45.714;11.362;2024-03-23T09:01:06;25.20;;;16.00;;
18076;SDS011;9165;45.714;11.362;2024-03-23T09:03:31;25.57;;;15.87;;
18076;SDS011;9165;45.714;11.362;2024-03-23T09:06:00;26.50;;;16.37;;
18076;SDS011;9165;45.714;11.362;2024-03-23T09:08:27;24.67;;;16.90;;
18076;SDS011;9165;45.714;11.362;2024-03-23T09:10:54;25.20;;;17.00;;
18076;SDS011;9165;45.714;11.362;2024-03-23T09:13:19;27.20;;;16.13;;
18076;SDS011;9165;45.714;11.362;2024-03-23T09:15:46;27.80;;;16.90;;
18076;SDS011;9165;45.714;11.362;2024-03-23T09:18:12;23.50;;;16.87;;
18076;SDS011;9165;45.714;11.362;2024-03-23T09:20:39;22.93;;;15.83;;
18076;SDS011;9165;45.714;11.362;2024-03-23T09:23:05;21.77;;;15.40;;
18076;SDS011;9165;45.714;11.362;2024-03-23T09:25:32;23.83;;;16.67;;
18076;SDS011;9165;45.714;11.362;2024-03-23T09:28:01;28.57;;;15.83;;
18076;SDS011;9165;45.714;11.362;2024-03-23T09:30:27;19.87;;;15.10;;
18076;SDS011;9165;45.714;11.362;2024-03-23T09:32:54;22.27;;;15.57;;
18076;SDS011;9165;45.714;11.362;2024-03-23T09:35:19;22.93;;;16.07;;
18076;SDS011;9165;45.714;11.362;2024-03-23T09:37:46;25.53;;;16.37;;
18076;SDS011;9165;45.714;11.362;2024-03-23T09:40:11;24.30;;;17.20;;
18076;SDS011;9165;45.714;11.362;2024-03-23T09:42:39;26.50;;;16.83;;
18076;SDS011;9165;45.714;11.362;2024-03-23T09:45:05;26.57;;;17.13;;
18076;SDS011;9165;45.714;11.362;2024-03-23T09:47:32;22.87;;;16.87;;
18076;SDS011;9165;45.714;11.362;2024-03-23T09:49:58;28.63;;;18.47;;
18076;SDS011;9165;45.714;11.362;2024-03-23T09:52:25;23.37;;;18.13;;
18076;SDS011;9165;45.714;11.362;2024-03-23T09:54:51;27.20;;;18.40;;
18076;SDS011;9165;45.714;11.362;2024-03-23T09:57:17;23.57;;;18.20;;
18076;SDS011;9165;45.714;11.362;2024-03-23T09:59:44;27.13;;;18.30;;
18076;SDS011;9165;45.714;11.362;2024-03-23T10:02:11;26.00;;;18.43;;
18076;SDS011;9165;45.714;11.362;2024-03-23T10:04:42;24.70;;;17.50;;
18076;SDS011;9165;45.714;11.362;2024-03-23T10:07:11;22.33;;;16.70;;
18076;SDS011;9165;45.714;11.362;2024-03-23T10:09:37;27.60;;;17.00;;
18076;SDS011;9165;45.714;11.362;2024-03-23T10:12:13;28.37;;;17.93;;
18076;SDS011;9165;45.714;11.362;2024-03-23T10:14:38;23.57;;;18.47;;
18076;SDS011;9165;45.714;11.362;2024-03-23T10:17:12;26.80;;;18.63;;
18076;SDS011;9165;45.714;11.362;2024-03-23T10:19:44;27.43;;;18.63;;
18076;SDS011;9165;45.714;11.362;2024-03-23T10:22:13;30.60;;;19.33;;
18076;SDS011;9165;45.714;11.362;2024-03-23T10:24:38;30.33;;;19.23;;
18076;SDS011;9165;45.714;11.362;2024-03-23T10:27:05;24.80;;;18.70;;
18076;SDS011;9165;45.714;11.362;2024-03-23T10:29:30;27.27;;;18.67;;
18076;SDS011;9165;45.714;11.362;2024-03-23T10:35:03;31.07;;;19.73;;
18076;SDS011;9165;45.714;11.362;2024-03-23T10:37:40;32.70;;;20.10;;
18076;SDS011;9165;45.714;11.362;2024-03-23T10:40:06;29.77;;;21.60;;
18076;SDS011;9165;45.714;11.362;2024-03-23T10:42:34;28.93;;;20.67;;
18076;SDS011;9165;45.714;11.362;2024-03-23T10:45:00;28.03;;;19.57;;
18076;SDS011;9165;45.714;11.362;2024-03-23T10:47:31;26.20;;;18.83;;
18076;SDS011;9165;45.714;11.362;2024-03-23T10:49:58;28.37;;;19.57;;
18076;SDS011;9165;45.714;11.362;2024-03-23T10:52:25;26.93;;;20.23;;
18076;SDS011;9165;45.714;11.362;2024-03-23T10:54:50;27.57;;;19.37;;
18076;SDS011;9165;45.714;11.362;2024-03-23T10:57:17;25.33;;;19.03;;
18076;SDS011;9165;45.714;11.362;2024-03-23T10:59:43;29.87;;;20.53;;
18076;SDS011;9165;45.714;11.362;2024-03-23T11:02:18;29.07;;;21.23;;
18076;SDS011;9165;45.714;11.362;2024-03-23T11:04:44;32.57;;;23.97;;
18076;SDS011;9165;45.714;11.362;2024-03-23T11:09:54;29.70;;;22.17;;
18076;SDS011;9165;45.714;11.362;2024-03-23T11:12:25;34.70;;;21.60;;
18076;SDS011;9165;45.714;11.362;2024-03-23T11:14:51;34.27;;;23.73;;
18076;SDS011;9165;45.714;11.362;2024-03-23T11:17:18;30.13;;;20.87;;
18076;SDS011;9165;45.714;11.362;2024-03-23T11:19:44;28.83;;;20.63;;
18076;SDS011;9165;45.714;11.362;2024-03-23T11:22:10;32.33;;;22.27;;
18076;SDS011;9165;45.714;11.362;2024-03-23T11:24:36;30.60;;;22.07;;
18076;SDS011;9165;45.714;11.362;2024-03-23T11:27:09;30.77;;;21.27;;
18076;SDS011;9165;45.714;11.362;2024-03-23T11:29:40;36.03;;;21.73;;
18076;SDS011;9165;45.714;11.362;2024-03-23T11:32:07;31.17;;;22.33;;
18076;SDS011;9165;45.714;11.362;2024-03-23T11:34:36;30.83;;;21.60;;
18076;SDS011;9165;45.714;11.362;2024-03-23T11:37:04;27.63;;;20.57;;
18076;SDS011;9165;45.714;11.362;2024-03-23T11:39:30;27.97;;;20.00;;
18076;SDS011;9165;45.714;11.362;2024-03-23T11:41:56;31.47;;;21.87;;
18076;SDS011;9165;45.714;11.362;2024-03-23T11:44:24;29.27;;;20.13;;
18076;SDS011;9165;45.714;11.362;2024-03-23T11:46:55;32.90;;;20.80;;
18076;SDS011;9165;45.714;11.362;2024-03-23T11:49:32;34.17;;;22.43;;
18076;SDS011;9165;45.714;11.362;2024-03-23T11:52:06;28.33;;;21.60;;
18076;SDS011;9165;45.714;11.362;2024-03-23T11:54:31;28.13;;;21.03;;
18076;SDS011;9165;45.714;11.362;2024-03-23T11:56:58;32.33;;;21.47;;
18076;SDS011;9165;45.714;11.362;2024-03-23T11:59:36;36.00;;;22.67;;
18076;SDS011;9165;45.714;11.362;2024-03-23T12:02:06;30.10;;;21.30;;
18076;SDS011;9165;45.714;11.362;2024-03-23T12:04:32;28.73;;;22.50;;
18076;SDS011;9165;45.714;11.362;2024-03-23T12:07:10;34.00;;;23.17;;
18076;SDS011;9165;45.714;11.362;2024-03-23T12:09:36;35.93;;;22.40;;
18076;SDS011;9165;45.714;11.362;2024-03-23T12:12:10;32.50;;;23.40;;
18076;SDS011;9165;45.714;11.362;2024-03-23T12:14:37;33.83;;;22.57;;
18076;SDS011;9165;45.714;11.362;2024-03-23T12:17:08;29.90;;;22.27;;
18076;SDS011;9165;45.714;11.362;2024-03-23T12:19:33;35.27;;;25.27;;
18076;SDS011;9165;45.714;11.362;2024-03-23T12:24:46;29.60;;;23.23;;
18076;SDS011;9165;45.714;11.362;2024-03-23T12:27:13;38.77;;;25.33;;
18076;SDS011;9165;45.714;11.362;2024-03-23T12:29:44;35.23;;;24.57;;
18076;SDS011;9165;45.714;11.362;2024-03-23T12:32:11;40.00;;;24.13;;
18076;SDS011;9165;45.714;11.362;2024-03-23T12:34:37;34.50;;;24.50;;
18076;SDS011;9165;45.714;11.362;2024-03-23T12:37:04;31.90;;;23.17;;
18076;SDS011;9165;45.714;11.362;2024-03-23T12:39:31;34.60;;;24.40;;
18076;SDS011;9165;45.714;11.362;2024-03-23T12:41:57;36.77;;;24.47;;
18076;SDS011;9165;45.714;11.362;2024-03-23T12:44:23;39.63;;;25.07;;
18076;SDS011;9165;45.714;11.362;2024-03-23T12:46:51;34.83;;;24.23;;
18076;SDS011;9165;45.714;11.362;2024-03-23T12:49:17;34.97;;;24.37;;
18076;SDS011;9165;45.714;11.362;2024-03-23T12:51:47;35.73;;;23.77;;
18076;SDS011;9165;45.714;11.362;2024-03-23T12:54:13;35.10;;;23.90;;
18076;SDS011;9165;45.714;11.362;2024-03-23T12:56:39;32.00;;;23.30;;
18076;SDS011;9165;45.714;11.362;2024-03-23T12:59:05;34.97;;;25.40;;
18076;SDS011;9165;45.714;11.362;2024-03-23T13:01:31;33.87;;;23.43;;
18076;SDS011;9165;45.714;11.362;2024-03-23T13:03:58;33.97;;;24.30;;
18076;SDS011;9165;45.714;11.362;2024-03-23T13:06:26;33.30;;;24.17;;
18076;SDS011;9165;45.714;11.362;2024-03-23T13:08:52;36.80;;;25.00;;
18076;SDS011;9165;45.714;11.362;2024-03-23T13:11:19;35.03;;;25.47;;
18076;SDS011;9165;45.714;11.362;2024-03-23T13:13:45;33.63;;;24.03;;
18076;SDS011;9165;45.714;11.362;2024-03-23T13:16:11;35.60;;;24.10;;
18076;SDS011;9165;45.714;11.362;2024-03-23T13:18:37;36.23;;;24.57;;
18076;SDS011;9165;45.714;11.362;2024-03-23T13:21:05;34.27;;;23.57;;
18076;SDS011;9165;45.714;11.362;2024-03-23T13:23:31;33.33;;;23.27;;
18076;SDS011;9165;45.714;11.362;2024-03-23T13:25:59;36.07;;;24.20;;
18076;SDS011;9165;45.714;11.362;2024-03-23T13:28:24;37.47;;;24.17;;
18076;SDS011;9165;45.714;11.362;2024-03-23T13:30:51;35.63;;;24.47;;
18076;SDS011;9165;45.714;11.362;2024-03-23T13:33:17;34.47;;;25.70;;
18076;SDS011;9165;45.714;11.362;2024-03-23T13:35:49;35.00;;;24.10;;
18076;SDS011;9165;45.714;11.362;2024-03-23T13:38:15;36.27;;;24.63;;
18076;SDS011;9165;45.714;11.362;2024-03-23T13:40:49;36.83;;;23.57;;
18076;SDS011;9165;45.714;11.362;2024-03-23T13:43:14;39.30;;;25.43;;
18076;SDS011;9165;45.714;11.362;2024-03-23T13:45:41;36.20;;;25.60;;
18076;SDS011;9165;45.714;11.362;2024-03-23T13:48:07;35.57;;;25.43;;
18076;SDS011;9165;45.714;11.362;2024-03-23T13:50:34;35.17;;;24.23;;
18076;SDS011;9165;45.714;11.362;2024-03-23T13:53:00;37.63;;;25.17;;
18076;SDS011;9165;45.714;11.362;2024-03-23T13:55:29;34.67;;;24.87;;
18076;SDS011;9165;45.714;11.362;2024-03-23T13:57:54;36.47;;;24.87;;
18076;SDS011;9165;45.714;11.362;2024-03-23T14:00:23;36.47;;;25.30;;
18076;SDS011;9165;45.714;11.362;2024-03-23T14:02:48;36.30;;;25.83;;
18076;SDS011;9165;45.714;11.362;2024-03-23T14:05:15;37.37;;;25.07;;
18076;SDS011;9165;45.714;11.362;2024-03-23T14:07:41;37.00;;;26.27;;
18076;SDS011;9165;45.714;11.362;2024-03-23T14:10:08;33.37;;;24.77;;
18076;SDS011;9165;45.714;11.362;2024-03-23T14:12:37;34.40;;;25.13;;
18076;SDS011;9165;45.714;11.362;2024-03-23T14:15:05;36.00;;;26.00;;
18076;SDS011;9165;45.714;11.362;2024-03-23T14:17:30;42.27;;;27.73;;
18076;SDS011;9165;45.714;11.362;2024-03-23T14:20:02;36.80;;;24.83;;
18076;SDS011;9165;45.714;11.362;2024-03-23T14:22:31;34.50;;;25.03;;
18076;SDS011;9165;45.714;11.362;2024-03-23T14:25:06;33.60;;;25.00;;
18076;SDS011;9165;45.714;11.362;2024-03-23T14:27:32;38.53;;;26.03;;
18076;SDS011;9165;45.714;11.362;2024-03-23T14:30:04;37.13;;;25.50;;
18076;SDS011;9165;45.714;11.362;2024-03-23T14:32:34;37.10;;;26.80;;
18076;SDS011;9165;45.714;11.362;2024-03-23T14:35:06;38.27;;;26.17;;
18076;SDS011;9165;45.714;11.362;2024-03-23T14:38:06;38.37;;;25.80;;
18076;SDS011;9165;45.714;11.362;2024-03-23T14:40:29;37.67;;;26.80;;
18076;SDS011;9165;45.714;11.362;2024-03-23T14:42:57;36.27;;;26.40;;
18076;SDS011;9165;45.714;11.362;2024-03-23T14:45:25;37.90;;;26.17;;
18076;SDS011;9165;45.714;11.362;2024-03-23T14:47:51;37.07;;;24.90;;
18076;SDS011;9165;45.714;11.362;2024-03-23T14:50:34;43.20;;;26.57;;
18076;SDS011;9165;45.714;11.362;2024-03-23T14:53:21;39.53;;;27.03;;
18076;SDS011;9165;45.714;11.362;2024-03-23T14:56:10;37.03;;;26.87;;
18076;SDS011;9165;45.714;11.362;2024-03-23T14:58:38;38.17;;;26.27;;
18076;SDS011;9165;45.714;11.362;2024-03-23T15:01:05;36.27;;;24.17;;
18076;SDS011;9165;45.714;11.362;2024-03-23T15:03:34;43.93;;;27.40;;
18076;SDS011;9165;45.714;11.362;2024-03-23T15:06:00;38.37;;;26.10;;
18076;SDS011;9165;45.714;11.362;2024-03-23T15:08:27;41.20;;;27.27;;
18076;SDS011;9165;45.714;11.362;2024-03-23T15:10:53;40.97;;;27.97;;
18076;SDS011;9165;45.714;11.362;2024-03-23T15:13:20;40.93;;;28.43;;
18076;SDS011;9165;45.714;11.362;2024-03-23T15:15:48;40.93;;;27.07;;
18076;SDS011;9165;45.714;11.362;2024-03-23T15:18:18;41.37;;;27.07;;
18076;SDS011;9165;45.714;11.362;2024-03-23T15:20:53;39.47;;;27.50;;
18076;SDS011;9165;45.714;11.362;2024-03-23T15:23:23;39.70;;;27.73;;
18076;SDS011;9165;45.714;11.362;2024-03-23T15:25:58;40.70;;;27.63;;
18076;SDS011;9165;45.714;11.362;2024-03-23T15:28:25;38.80;;;27.97;;
18076;SDS011;9165;45.714;11.362;2024-03-23T15:31:03;39.83;;;28.13;;
18076;SDS011;9165;45.714;11.362;2024-03-23T15:33:32;38.13;;;27.27;;
18076;SDS011;9165;45.714;11.362;2024-03-23T15:36:09;43.90;;;28.10;;
18076;SDS011;9165;45.714;11.362;2024-03-23T15:39:08;49.13;;;31.07;;
18076;SDS011;9165;45.714;11.362;2024-03-23T15:41:49;46.40;;;31.50;;
18076;SDS011;9165;45.714;11.362;2024-03-23T15:44:35;50.60;;;32.77;;
18076;SDS011;9165;45.714;11.362;2024-03-23T15:47:07;43.13;;;29.87;;
18076;SDS011;9165;45.714;11.362;2024-03-23T15:52:20;56.07;;;34.30;;
18076;SDS011;9165;45.714;11.362;2024-03-23T15:55:03;59.57;;;36.60;;
18076;SDS011;9165;45.714;11.362;2024-03-23T15:57:33;54.20;;;34.07;;
18076;SDS011;9165;45.714;11.362;2024-03-23T15:59:59;42.27;;;27.50;;
18076;SDS011;9165;45.714;11.362;2024-03-23T16:02:34;41.40;;;26.53;;
18076;SDS011;9165;45.714;11.362;2024-03-23T16:05:44;36.70;;;26.97;;
18076;SDS011;9165;45.714;11.362;2024-03-23T16:08:02;37.20;;;26.57;;
18076;SDS011;9165;45.714;11.362;2024-03-23T16:10:33;38.53;;;26.67;;
18076;SDS011;9165;45.714;11.362;2024-03-23T16:13:04;40.27;;;26.03;;
18076;SDS011;9165;45.714;11.362;2024-03-23T16:15:33;51.80;;;24.80;;
18076;SDS011;9165;45.714;11.362;2024-03-23T16:18:06;36.23;;;24.70;;
18076;SDS011;9165;45.714;11.362;2024-03-23T16:20:32;35.93;;;24.30;;
18076;SDS011;9165;45.714;11.362;2024-03-23T16:22:59;35.43;;;24.67;;
18076;SDS011;9165;45.714;11.362;2024-03-23T16:25:26;34.30;;;24.33;;
18076;SDS011;9165;45.714;11.362;2024-03-23T16:27:56;37.23;;;25.17;;
18076;SDS011;9165;45.714;11.362;2024-03-23T16:30:22;38.20;;;26.63;;
18076;SDS011;9165;45.714;11.362;2024-03-23T16:32:50;35.73;;;25.10;;